sensor_id;sensor_type;location;lat;lon;timestamp;P1;durP1;ratioP1;P2;durP2;ratioP2
3274;SDS011;1649;53.672;10.064;2023-02-01T00:01:40;19.63;;;3.70;;
3274;SDS011;1649;53.672;10.064;2023-02-01T00:04:05;28.17;;;4.07;;
3274;SDS011;1649;53.672;10.064;2023-02-01T00:06:31;17.50;;;3.50;;
3274;SDS011;1649;53.672;10.064;2023-02-01T00:08:56;17.33;;;3.40;;
3274;SDS011;1649;53.672;10.064;2023-02-01T00:11:22;19.10;;;3.43;;
3274;SDS011;1649;53.672;10.064;2023-02-01T00:13:48;28.23;;;3.90;;
3274;SDS011;1649;53.672;10.064;2023-02-01T00:16:16;21.00;;;3.57;;
3274;SDS011;1649;53.672;10.064;2023-02-01T00:18:43;16.97;;;3.40;;
3274;SDS011;1649;53.672;10.064;2023-02-01T00:21:10;11.43;;;3.40;;
3274;SDS011;1649;53.672;10.064;2023-02-01T00:23:36;25.70;;;3.40;;
3274;SDS011;1649;53.672;10.064;2023-02-01T00:26:04;19.70;;;3.63;;
3274;SDS011;1649;53.672;10.064;2023-02-01T00:28:31;15.53;;;3.17;;
3274;SDS011;1649;53.672;10.064;2023-02-01T00:30:58;19.07;;;3.67;;
3274;SDS011;1649;53.672;10.064;2023-02-01T00:33:28;18.90;;;3.77;;
3274;SDS011;1649;53.672;10.064;2023-02-01T00:35:58;18.17;;;4.10;;
3274;SDS011;1649;53.672;10.064;2023-02-01T00:38:28;26.17;;;4.47;;
3274;SDS011;1649;53.672;10.064;2023-02-01T00:40:53;27.37;;;4.90;;
3274;SDS011;1649;53.672;10.064;2023-02-01T00:43:20;23.77;;;3.80;;
3274;SDS011;1649;53.672;10.064;2023-02-01T00:45:46;24.00;;;3.97;;
3274;SDS011;1649;53.672;10.064;2023-02-01T00:48:12;23.70;;;4.43;;
3274;SDS011;1649;53.672;10.064;2023-02-01T00:50:43;35.90;;;4.40;;
3274;SDS011;1649;53.672;10.064;2023-02-01T00:53:09;19.97;;;4.43;;
3274;SDS011;1649;53.672;10.064;2023-02-01T00:55:35;13.80;;;3.70;;
3274;SDS011;1649;53.672;10.064;2023-02-01T00:58:01;23.77;;;4.07;;
3274;SDS011;1649;53.672;10.064;2023-02-01T01:00:27;29.23;;;4.07;;
3274;SDS011;1649;53.672;10.064;2023-02-01T01:02:52;27.40;;;4.17;;
3274;SDS011;1649;53.672;10.064;2023-02-01T01:05:18;27.20;;;4.13;;
3274;SDS011;1649;53.672;10.064;2023-02-01T01:07:44;31.47;;;4.97;;
3274;SDS011;1649;53.672;10.064;2023-02-01T01:10:09;17.80;;;4.13;;
3274;SDS011;1649;53.672;10.064;2023-02-01T01:12:35;30.50;;;5.70;;
3274;SDS011;1649;53.672;10.064;2023-02-01T01:15:01;23.67;;;4.83;;
3274;SDS011;1649;53.672;10.064;2023-02-01T01:17:26;21.33;;;4.83;;
3274;SDS011;1649;53.672;10.064;2023-02-01T01:19:52;28.20;;;5.50;;
3274;SDS011;1649;53.672;10.064;2023-02-01T01:22:17;19.10;;;5.13;;
3274;SDS011;1649;53.672;10.064;2023-02-01T01:24:43;23.70;;;4.37;;
3274;SDS011;1649;53.672;10.064;2023-02-01T01:27:08;23.03;;;4.87;;
3274;SDS011;1649;53.672;10.064;2023-02-01T01:29:34;30.10;;;4.77;;
3274;SDS011;1649;53.672;10.064;2023-02-01T01:31:59;29.30;;;6.53;;
3274;SDS011;1649;53.672;10.064;2023-02-01T01:34:25;31.23;;;5.03;;
3274;SDS011;1649;53.672;10.064;2023-02-01T01:36:51;25.67;;;4.83;;
3274;SDS011;1649;53.672;10.064;2023-02-01T01:39:16;35.93;;;5.37;;
3274;SDS011;1649;53.672;10.064;2023-02-01T01:41:42;28.40;;;4.93;;
3274;SDS011;1649;53.672;10.064;2023-02-01T01:44:53;23.93;;;4.40;;
3274;SDS011;1649;53.672;10.064;2023-02-01T01:47:11;29.80;;;4.30;;
3274;SDS011;1649;53.672;10.064;2023-02-01T01:49:39;27.77;;;5.63;;
3274;SDS011;1649;53.672;10.064;2023-02-01T01:52:04;24.30;;;4.97;;
3274;SDS011;1649;53.672;10.064;2023-02-01T01:57:09;31.43;;;4.53;;
3274;SDS011;1649;53.672;10.064;2023-02-01T01:59:37;26.57;;;4.93;;
3274;SDS011;1649;53.672;10.064;2023-02-01T02:02:05;29.10;;;5.70;;
3274;SDS011;1649;53.672;10.064;2023-02-01T02:04:31;26.77;;;5.23;;
3274;SDS011;1649;53.672;10.064;2023-02-01T02:07:02;30.87;;;4.63;;
3274;SDS011;1649;53.672;10.064;2023-02-01T02:09:33;30.93;;;4.57;;
3274;SDS011;1649;53.672;10.064;2023-02-01T02:14:55;23.93;;;5.80;;
3274;SDS011;1649;53.672;10.064;2023-02-01T02:17:24;28.53;;;4.87;;
3274;SDS011;1649;53.672;10.064;2023-02-01T02:28:48;25.83;;;4.67;;
3274;SDS011;1649;53.672;10.064;2023-02-01T02:34:26;27.57;;;4.87;;
3274;SDS011;1649;53.672;10.064;2023-02-01T02:37:02;18.70;;;4.20;;
3274;SDS011;1649;53.672;10.064;2023-02-01T02:42:12;26.87;;;5.00;;
3274;SDS011;1649;53.672;10.064;2023-02-01T02:45:06;29.83;;;5.57;;
3274;SDS011;1649;53.672;10.064;2023-02-01T02:48:02;32.57;;;4.97;;
3274;SDS011;1649;53.672;10.064;2023-02-01T02:51:11;22.43;;;4.53;;
3274;SDS011;1649;53.672;10.064;2023-02-01T02:56:50;24.93;;;3.80;;
3274;SDS011;1649;53.672;10.064;2023-02-01T02:59:36;20.30;;;3.60;;
3274;SDS011;1649;53.672;10.064;2023-02-01T03:02:23;21.90;;;4.00;;
3274;SDS011;1649;53.672;10.064;2023-02-01T03:05:11;26.60;;;4.27;;
3274;SDS011;1649;53.672;10.064;2023-02-01T03:10:17;22.90;;;4.50;;
3274;SDS011;1649;53.672;10.064;2023-02-01T03:12:51;23.70;;;5.20;;
3274;SDS011;1649;53.672;10.064;2023-02-01T03:15:21;21.37;;;4.20;;
3274;SDS011;1649;53.672;10.064;2023-02-01T03:17:51;22.47;;;4.13;;
3274;SDS011;1649;53.672;10.064;2023-02-01T03:20:20;27.13;;;3.83;;
3274;SDS011;1649;53.672;10.064;2023-02-01T03:22:48;17.03;;;3.73;;
3274;SDS011;1649;53.672;10.064;2023-02-01T03:25:18;19.60;;;3.87;;
3274;SDS011;1649;53.672;10.064;2023-02-01T03:28:23;22.43;;;3.20;;
3274;SDS011;1649;53.672;10.064;2023-02-01T03:30:44;21.80;;;3.50;;
3274;SDS011;1649;53.672;10.064;2023-02-01T03:33:12;28.63;;;3.77;;
3274;SDS011;1649;53.672;10.064;2023-02-01T03:36:01;24.40;;;3.90;;
3274;SDS011;1649;53.672;10.064;2023-02-01T03:43:37;20.50;;;3.80;;
3274;SDS011;1649;53.672;10.064;2023-02-01T03:46:18;22.33;;;4.37;;
3274;SDS011;1649;53.672;10.064;2023-02-01T03:49:06;20.43;;;4.07;;
3274;SDS011;1649;53.672;10.064;2023-02-01T03:51:35;20.23;;;3.30;;
3274;SDS011;1649;53.672;10.064;2023-02-01T03:54:03;16.20;;;3.20;;
3274;SDS011;1649;53.672;10.064;2023-02-01T03:56:31;19.40;;;4.10;;
3274;SDS011;1649;53.672;10.064;2023-02-01T03:59:01;16.37;;;4.03;;
3274;SDS011;1649;53.672;10.064;2023-02-01T04:01:28;26.43;;;3.80;;
3274;SDS011;1649;53.672;10.064;2023-02-01T04:03:54;19.27;;;3.40;;
3274;SDS011;1649;53.672;10.064;2023-02-01T04:06:20;17.90;;;3.37;;
3274;SDS011;1649;53.672;10.064;2023-02-01T04:08:46;22.50;;;4.13;;
3274;SDS011;1649;53.672;10.064;2023-02-01T04:11:11;17.03;;;3.60;;
3274;SDS011;1649;53.672;10.064;2023-02-01T04:13:37;17.20;;;3.20;;
3274;SDS011;1649;53.672;10.064;2023-02-01T04:16:02;15.13;;;3.10;;
3274;SDS011;1649;53.672;10.064;2023-02-01T04:18:28;15.80;;;3.93;;
3274;SDS011;1649;53.672;10.064;2023-02-01T04:20:54;13.07;;;3.30;;
3274;SDS011;1649;53.672;10.064;2023-02-01T04:23:19;14.33;;;3.17;;
3274;SDS011;1649;53.672;10.064;2023-02-01T04:25:45;16.00;;;2.87;;
3274;SDS011;1649;53.672;10.064;2023-02-01T04:28:11;19.33;;;3.10;;
3274;SDS011;1649;53.672;10.064;2023-02-01T04:30:36;22.73;;;3.33;;
3274;SDS011;1649;53.672;10.064;2023-02-01T04:33:02;10.27;;;2.70;;
3274;SDS011;1649;53.672;10.064;2023-02-01T04:35:30;14.33;;;3.80;;
3274;SDS011;1649;53.672;10.064;2023-02-01T04:37:56;15.53;;;3.20;;
3274;SDS011;1649;53.672;10.064;2023-02-01T04:40:21;20.77;;;2.90;;
3274;SDS011;1649;53.672;10.064;2023-02-01T04:42:47;21.23;;;3.30;;
3274;SDS011;1649;53.672;10.064;2023-02-01T04:45:12;19.93;;;3.43;;
3274;SDS011;1649;53.672;10.064;2023-02-01T04:47:38;21.00;;;3.97;;
3274;SDS011;1649;53.672;10.064;2023-02-01T04:50:04;12.27;;;3.67;;
3274;SDS011;1649;53.672;10.064;2023-02-01T04:52:30;14.47;;;3.37;;
3274;SDS011;1649;53.672;10.064;2023-02-01T04:54:56;10.83;;;3.47;;
3274;SDS011;1649;53.672;10.064;2023-02-01T04:57:24;13.40;;;3.80;;
3274;SDS011;1649;53.672;10.064;2023-02-01T04:59:49;16.57;;;3.20;;
3274;SDS011;1649;53.672;10.064;2023-02-01T05:02:15;13.90;;;2.63;;
3274;SDS011;1649;53.672;10.064;2023-02-01T05:04:40;15.67;;;2.87;;
3274;SDS011;1649;53.672;10.064;2023-02-01T05:07:06;16.30;;;2.90;;
3274;SDS011;1649;53.672;10.064;2023-02-01T05:09:31;13.57;;;2.77;;
3274;SDS011;1649;53.672;10.064;2023-02-01T05:11:57;15.60;;;2.73;;
3274;SDS011;1649;53.672;10.064;2023-02-01T05:14:41;5.93;;;2.37;;
3274;SDS011;1649;53.672;10.064;2023-02-01T05:17:06;12.73;;;2.93;;
3274;SDS011;1649;53.672;10.064;2023-02-01T05:19:32;12.60;;;3.07;;
3274;SDS011;1649;53.672;10.064;2023-02-01T05:21:57;9.90;;;2.33;;
3274;SDS011;1649;53.672;10.064;2023-02-01T05:24:23;7.37;;;1.80;;
3274;SDS011;1649;53.672;10.064;2023-02-01T05:26:48;9.20;;;2.07;;
3274;SDS011;1649;53.672;10.064;2023-02-01T05:29:14;7.20;;;2.00;;
3274;SDS011;1649;53.672;10.064;2023-02-01T05:31:41;7.77;;;1.67;;
3274;SDS011;1649;53.672;10.064;2023-02-01T05:34:06;6.10;;;1.53;;
3274;SDS011;1649;53.672;10.064;2023-02-01T05:36:33;9.67;;;1.77;;
3274;SDS011;1649;53.672;10.064;2023-02-01T05:38:58;8.03;;;1.93;;
3274;SDS011;1649;53.672;10.064;2023-02-01T05:41:24;8.33;;;1.77;;
3274;SDS011;1649;53.672;10.064;2023-02-01T05:43:50;10.53;;;1.87;;
3274;SDS011;1649;53.672;10.064;2023-02-01T05:46:15;5.50;;;1.63;;
3274;SDS011;1649;53.672;10.064;2023-02-01T05:48:41;3.90;;;1.60;;
3274;SDS011;1649;53.672;10.064;2023-02-01T05:51:07;4.57;;;1.30;;
3274;SDS011;1649;53.672;10.064;2023-02-01T05:53:34;5.53;;;1.20;;
3274;SDS011;1649;53.672;10.064;2023-02-01T05:56:00;5.03;;;1.60;;
3274;SDS011;1649;53.672;10.064;2023-02-01T05:58:25;5.37;;;1.43;;
3274;SDS011;1649;53.672;10.064;2023-02-01T06:00:51;6.27;;;1.20;;
3274;SDS011;1649;53.672;10.064;2023-02-01T06:03:17;7.60;;;2.17;;
3274;SDS011;1649;53.672;10.064;2023-02-01T06:05:46;5.37;;;1.37;;
3274;SDS011;1649;53.672;10.064;2023-02-01T06:08:12;8.47;;;1.47;;
3274;SDS011;1649;53.672;10.064;2023-02-01T06:10:37;4.73;;;1.57;;
3274;SDS011;1649;53.672;10.064;2023-02-01T06:13:03;4.83;;;1.60;;
3274;SDS011;1649;53.672;10.064;2023-02-01T06:15:29;5.83;;;1.70;;
3274;SDS011;1649;53.672;10.064;2023-02-01T06:17:55;7.10;;;2.07;;
3274;SDS011;1649;53.672;10.064;2023-02-01T06:20:21;12.30;;;2.23;;
3274;SDS011;1649;53.672;10.064;2023-02-01T06:22:46;5.00;;;2.27;;
3274;SDS011;1649;53.672;10.064;2023-02-01T06:25:12;6.53;;;1.60;;
3274;SDS011;1649;53.672;10.064;2023-02-01T06:27:38;6.70;;;2.20;;
3274;SDS011;1649;53.672;10.064;2023-02-01T06:30:04;8.43;;;1.97;;
3274;SDS011;1649;53.672;10.064;2023-02-01T06:32:31;9.97;;;2.87;;
3274;SDS011;1649;53.672;10.064;2023-02-01T06:34:57;6.60;;;1.60;;
3274;SDS011;1649;53.672;10.064;2023-02-01T06:37:24;5.70;;;1.93;;
3274;SDS011;1649;53.672;10.064;2023-02-01T06:39:50;12.37;;;2.33;;
3274;SDS011;1649;53.672;10.064;2023-02-01T06:42:16;8.57;;;2.17;;
3274;SDS011;1649;53.672;10.064;2023-02-01T06:44:42;6.40;;;1.47;;
3274;SDS011;1649;53.672;10.064;2023-02-01T06:47:07;5.67;;;2.20;;
3274;SDS011;1649;53.672;10.064;2023-02-01T06:49:33;8.50;;;1.80;;
3274;SDS011;1649;53.672;10.064;2023-02-01T06:51:58;10.53;;;2.07;;
3274;SDS011;1649;53.672;10.064;2023-02-01T06:54:27;17.67;;;2.80;;
3274;SDS011;1649;53.672;10.064;2023-02-01T06:56:53;8.80;;;2.20;;
3274;SDS011;1649;53.672;10.064;2023-02-01T06:59:19;13.73;;;2.13;;
3274;SDS011;1649;53.672;10.064;2023-02-01T07:01:44;15.67;;;3.60;;
3274;SDS011;1649;53.672;10.064;2023-02-01T07:04:10;13.83;;;2.50;;
3274;SDS011;1649;53.672;10.064;2023-02-01T07:06:37;21.33;;;2.90;;
3274;SDS011;1649;53.672;10.064;2023-02-01T07:09:03;16.40;;;2.63;;
3274;SDS011;1649;53.672;10.064;2023-02-01T07:11:28;19.43;;;3.63;;
3274;SDS011;1649;53.672;10.064;2023-02-01T07:13:55;15.53;;;2.47;;
3274;SDS011;1649;53.672;10.064;2023-02-01T07:16:21;14.07;;;3.20;;
3274;SDS011;1649;53.672;10.064;2023-02-01T07:18:50;12.90;;;2.83;;
3274;SDS011;1649;53.672;10.064;2023-02-01T07:21:16;12.40;;;3.20;;
3274;SDS011;1649;53.672;10.064;2023-02-01T07:23:41;17.90;;;3.27;;
3274;SDS011;1649;53.672;10.064;2023-02-01T07:26:07;21.83;;;2.90;;
3274;SDS011;1649;53.672;10.064;2023-02-01T07:28:35;15.83;;;3.57;;
3274;SDS011;1649;53.672;10.064;2023-02-01T07:31:06;15.33;;;3.60;;
3274;SDS011;1649;53.672;10.064;2023-02-01T07:33:33;17.00;;;3.90;;
3274;SDS011;1649;53.672;10.064;2023-02-01T07:36:00;24.73;;;3.90;;
3274;SDS011;1649;53.672;10.064;2023-02-01T07:38:27;20.20;;;3.83;;
3274;SDS011;1649;53.672;10.064;2023-02-01T07:40:56;28.30;;;5.13;;
3274;SDS011;1649;53.672;10.064;2023-02-01T07:43:26;23.87;;;3.77;;
3274;SDS011;1649;53.672;10.064;2023-02-01T07:45:52;23.33;;;4.23;;
3274;SDS011;1649;53.672;10.064;2023-02-01T07:48:19;25.27;;;4.00;;
3274;SDS011;1649;53.672;10.064;2023-02-01T07:50:45;14.77;;;3.67;;
3274;SDS011;1649;53.672;10.064;2023-02-01T07:53:11;24.50;;;3.73;;
3274;SDS011;1649;53.672;10.064;2023-02-01T07:55:40;28.77;;;3.73;;
3274;SDS011;1649;53.672;10.064;2023-02-01T07:58:06;27.43;;;3.80;;
3274;SDS011;1649;53.672;10.064;2023-02-01T08:00:31;23.17;;;4.27;;
3274;SDS011;1649;53.672;10.064;2023-02-01T08:03:15;35.93;;;5.43;;
3274;SDS011;1649;53.672;10.064;2023-02-01T08:05:41;21.73;;;4.13;;
3274;SDS011;1649;53.672;10.064;2023-02-01T08:08:07;16.43;;;4.27;;
3274;SDS011;1649;53.672;10.064;2023-02-01T08:10:32;22.37;;;3.50;;
3274;SDS011;1649;53.672;10.064;2023-02-01T08:13:00;23.37;;;4.93;;
3274;SDS011;1649;53.672;10.064;2023-02-01T08:15:26;20.60;;;4.70;;
3274;SDS011;1649;53.672;10.064;2023-02-01T08:17:52;26.93;;;5.20;;
3274;SDS011;1649;53.672;10.064;2023-02-01T08:20:19;23.50;;;4.53;;
3274;SDS011;1649;53.672;10.064;2023-02-01T08:22:51;24.43;;;4.07;;
3274;SDS011;1649;53.672;10.064;2023-02-01T08:25:18;30.90;;;4.50;;
3274;SDS011;1649;53.672;10.064;2023-02-01T08:27:43;28.90;;;4.97;;
3274;SDS011;1649;53.672;10.064;2023-02-01T08:30:09;23.37;;;4.97;;
3274;SDS011;1649;53.672;10.064;2023-02-01T08:32:35;22.83;;;3.60;;
3274;SDS011;1649;53.672;10.064;2023-02-01T08:35:01;27.50;;;4.60;;
3274;SDS011;1649;53.672;10.064;2023-02-01T08:37:27;30.20;;;4.90;;
3274;SDS011;1649;53.672;10.064;2023-02-01T08:39:53;23.10;;;4.47;;
3274;SDS011;1649;53.672;10.064;2023-02-01T08:42:18;29.43;;;4.87;;
3274;SDS011;1649;53.672;10.064;2023-02-01T08:45:03;20.47;;;4.00;;
3274;SDS011;1649;53.672;10.064;2023-02-01T08:47:28;25.07;;;4.53;;
3274;SDS011;1649;53.672;10.064;2023-02-01T08:49:54;21.33;;;3.57;;
3274;SDS011;1649;53.672;10.064;2023-02-01T08:52:20;21.80;;;3.67;;
3274;SDS011;1649;53.672;10.064;2023-02-01T08:54:46;17.37;;;3.70;;
3274;SDS011;1649;53.672;10.064;2023-02-01T08:57:11;16.67;;;3.70;;
3274;SDS011;1649;53.672;10.064;2023-02-01T08:59:37;12.73;;;2.70;;
3274;SDS011;1649;53.672;10.064;2023-02-01T09:02:03;12.80;;;3.17;;
3274;SDS011;1649;53.672;10.064;2023-02-01T09:04:28;17.77;;;2.50;;
3274;SDS011;1649;53.672;10.064;2023-02-01T09:06:54;16.57;;;3.30;;
3274;SDS011;1649;53.672;10.064;2023-02-01T09:09:20;13.47;;;3.07;;
3274;SDS011;1649;53.672;10.064;2023-02-01T09:11:47;13.03;;;2.97;;
3274;SDS011;1649;53.672;10.064;2023-02-01T09:14:12;19.80;;;3.60;;
3274;SDS011;1649;53.672;10.064;2023-02-01T09:16:38;14.97;;;3.07;;
3274;SDS011;1649;53.672;10.064;2023-02-01T09:19:03;19.07;;;3.87;;
3274;SDS011;1649;53.672;10.064;2023-02-01T09:21:29;19.20;;;3.87;;
3274;SDS011;1649;53.672;10.064;2023-02-01T09:23:54;11.77;;;3.30;;
3274;SDS011;1649;53.672;10.064;2023-02-01T09:26:20;19.03;;;3.83;;
3274;SDS011;1649;53.672;10.064;2023-02-01T09:28:45;17.80;;;3.20;;
3274;SDS011;1649;53.672;10.064;2023-02-01T09:31:11;22.70;;;4.23;;
3274;SDS011;1649;53.672;10.064;2023-02-01T09:33:36;14.13;;;3.10;;
3274;SDS011;1649;53.672;10.064;2023-02-01T09:36:03;15.53;;;3.33;;
3274;SDS011;1649;53.672;10.064;2023-02-01T09:38:30;17.23;;;3.37;;
3274;SDS011;1649;53.672;10.064;2023-02-01T09:40:56;21.93;;;4.40;;
3274;SDS011;1649;53.672;10.064;2023-02-01T09:46:09;16.00;;;3.27;;
3274;SDS011;1649;53.672;10.064;2023-02-01T09:48:53;17.53;;;3.57;;
3274;SDS011;1649;53.672;10.064;2023-02-01T09:51:22;18.07;;;3.33;;
3274;SDS011;1649;53.672;10.064;2023-02-01T09:53:55;18.73;;;3.87;;
3274;SDS011;1649;53.672;10.064;2023-02-01T09:56:58;19.60;;;3.60;;
3274;SDS011;1649;53.672;10.064;2023-02-01T09:59:37;19.43;;;3.80;;
3274;SDS011;1649;53.672;10.064;2023-02-01T10:02:25;21.07;;;3.67;;
3274;SDS011;1649;53.672;10.064;2023-02-01T10:04:54;23.70;;;4.20;;
3274;SDS011;1649;53.672;10.064;2023-02-01T10:07:26;13.63;;;3.27;;
3274;SDS011;1649;53.672;10.064;2023-02-01T10:15:34;17.13;;;3.87;;
3274;SDS011;1649;53.672;10.064;2023-02-01T10:23:42;22.73;;;4.57;;
3274;SDS011;1649;53.672;10.064;2023-02-01T10:26:33;18.60;;;3.83;;
3274;SDS011;1649;53.672;10.064;2023-02-01T10:29:03;13.67;;;3.80;;
3274;SDS011;1649;53.672;10.064;2023-02-01T10:31:30;20.57;;;3.60;;
3274;SDS011;1649;53.672;10.064;2023-02-01T10:36:55;18.80;;;4.63;;
3274;SDS011;1649;53.672;10.064;2023-02-01T10:39:25;20.60;;;3.70;;
3274;SDS011;1649;53.672;10.064;2023-02-01T10:41:51;20.30;;;3.80;;
3274;SDS011;1649;53.672;10.064;2023-02-01T10:44:18;20.90;;;4.50;;
3274;SDS011;1649;53.672;10.064;2023-02-01T10:46:47;22.37;;;4.43;;
3274;SDS011;1649;53.672;10.064;2023-02-01T10:49:15;21.60;;;4.30;;
3274;SDS011;1649;53.672;10.064;2023-02-01T10:54:16;18.03;;;3.17;;
3274;SDS011;1649;53.672;10.064;2023-02-01T10:56:45;19.47;;;4.03;;
3274;SDS011;1649;53.672;10.064;2023-02-01T10:59:16;18.33;;;4.30;;
3274;SDS011;1649;53.672;10.064;2023-02-01T11:01:43;23.80;;;3.87;;
3274;SDS011;1649;53.672;10.064;2023-02-01T11:04:16;20.80;;;4.07;;
3274;SDS011;1649;53.672;10.064;2023-02-01T11:06:49;16.67;;;3.63;;
3274;SDS011;1649;53.672;10.064;2023-02-01T11:09:19;27.90;;;4.43;;
3274;SDS011;1649;53.672;10.064;2023-02-01T11:16:53;19.53;;;3.70;;
3274;SDS011;1649;53.672;10.064;2023-02-01T11:19:20;16.90;;;4.03;;
3274;SDS011;1649;53.672;10.064;2023-02-01T11:21:52;24.10;;;3.93;;
3274;SDS011;1649;53.672;10.064;2023-02-01T11:26:48;15.80;;;2.87;;
3274;SDS011;1649;53.672;10.064;2023-02-01T11:29:15;20.77;;;4.17;;
3274;SDS011;1649;53.672;10.064;2023-02-01T11:31:46;15.03;;;3.00;;
3274;SDS011;1649;53.672;10.064;2023-02-01T11:34:14;17.77;;;4.30;;
3274;SDS011;1649;53.672;10.064;2023-02-01T11:36:42;12.20;;;3.43;;
3274;SDS011;1649;53.672;10.064;2023-02-01T11:44:44;24.20;;;4.03;;
3274;SDS011;1649;53.672;10.064;2023-02-01T11:47:25;18.87;;;4.53;;
3274;SDS011;1649;53.672;10.064;2023-02-01T11:50:02;21.80;;;3.73;;
3274;SDS011;1649;53.672;10.064;2023-02-01T11:58:38;18.60;;;2.83;;
3274;SDS011;1649;53.672;10.064;2023-02-01T12:01:19;19.10;;;3.90;;
3274;SDS011;1649;53.672;10.064;2023-02-01T12:04:24;15.90;;;4.20;;
3274;SDS011;1649;53.672;10.064;2023-02-01T12:07:19;15.17;;;3.77;;
3274;SDS011;1649;53.672;10.064;2023-02-01T12:21:17;14.17;;;3.47;;
3274;SDS011;1649;53.672;10.064;2023-02-01T12:24:23;15.93;;;4.03;;
3274;SDS011;1649;53.672;10.064;2023-02-01T12:30:19;10.80;;;2.70;;
3274;SDS011;1649;53.672;10.064;2023-02-01T12:33:27;13.87;;;3.00;;
3274;SDS011;1649;53.672;10.064;2023-02-01T12:36:04;10.73;;;3.30;;
3274;SDS011;1649;53.672;10.064;2023-02-01T12:43:53;11.63;;;2.33;;
3274;SDS011;1649;53.672;10.064;2023-02-01T12:49:10;8.17;;;2.10;;
3274;SDS011;1649;53.672;10.064;2023-02-01T12:51:41;7.10;;;1.53;;
3274;SDS011;1649;53.672;10.064;2023-02-01T12:54:15;6.40;;;1.70;;
3274;SDS011;1649;53.672;10.064;2023-02-01T12:59:40;5.67;;;1.60;;
3274;SDS011;1649;53.672;10.064;2023-02-01T13:07:35;7.07;;;1.37;;
3274;SDS011;1649;53.672;10.064;2023-02-01T13:10:20;5.70;;;1.40;;
3274;SDS011;1649;53.672;10.064;2023-02-01T13:18:17;7.50;;;1.10;;
3274;SDS011;1649;53.672;10.064;2023-02-01T13:20:47;6.93;;;1.80;;
3274;SDS011;1649;53.672;10.064;2023-02-01T13:23:39;3.73;;;1.20;;
3274;SDS011;1649;53.672;10.064;2023-02-01T13:26:07;6.37;;;1.53;;
3274;SDS011;1649;53.672;10.064;2023-02-01T13:31:25;8.67;;;1.33;;
3274;SDS011;1649;53.672;10.064;2023-02-01T13:42:30;9.03;;;1.37;;
3274;SDS011;1649;53.672;10.064;2023-02-01T13:45:03;7.47;;;1.40;;
3274;SDS011;1649;53.672;10.064;2023-02-01T13:47:42;5.33;;;1.70;;
3274;SDS011;1649;53.672;10.064;2023-02-01T13:50:19;6.80;;;1.53;;
3274;SDS011;1649;53.672;10.064;2023-02-01T13:52:59;5.83;;;1.83;;
3274;SDS011;1649;53.672;10.064;2023-02-01T13:55:40;4.50;;;1.37;;
3274;SDS011;1649;53.672;10.064;2023-02-01T14:00:40;4.10;;;1.27;;
3274;SDS011;1649;53.672;10.064;2023-02-01T14:03:13;5.23;;;1.30;;
3274;SDS011;1649;53.672;10.064;2023-02-01T14:10:46;7.37;;;2.63;;
3274;SDS011;1649;53.672;10.064;2023-02-01T14:23:47;6.70;;;2.00;;
3274;SDS011;1649;53.672;10.064;2023-02-01T14:31:34;8.70;;;2.80;;
3274;SDS011;1649;53.672;10.064;2023-02-01T14:34:16;10.80;;;2.73;;
3274;SDS011;1649;53.672;10.064;2023-02-01T14:36:49;7.53;;;1.80;;
3274;SDS011;1649;53.672;10.064;2023-02-01T14:39:20;7.93;;;2.20;;
3274;SDS011;1649;53.672;10.064;2023-02-01T14:50:32;10.20;;;2.10;;
3274;SDS011;1649;53.672;10.064;2023-02-01T14:55:38;10.57;;;1.90;;
3274;SDS011;1649;53.672;10.064;2023-02-01T14:58:32;9.93;;;1.93;;
3274;SDS011;1649;53.672;10.064;2023-02-01T15:06:30;13.53;;;2.30;;
3274;SDS011;1649;53.672;10.064;2023-02-01T15:09:03;10.67;;;2.77;;
3274;SDS011;1649;53.672;10.064;2023-02-01T15:14:21;9.53;;;2.50;;
3274;SDS011;1649;53.672;10.064;2023-02-01T15:16:47;8.73;;;2.00;;
3274;SDS011;1649;53.672;10.064;2023-02-01T15:19:18;15.70;;;2.70;;
3274;SDS011;1649;53.672;10.064;2023-02-01T15:21:51;10.80;;;2.77;;
3274;SDS011;1649;53.672;10.064;2023-02-01T15:24:20;6.60;;;2.00;;
3274;SDS011;1649;53.672;10.064;2023-02-01T15:26:51;13.70;;;2.30;;
3274;SDS011;1649;53.672;10.064;2023-02-01T15:29:19;7.63;;;2.57;;
3274;SDS011;1649;53.672;10.064;2023-02-01T15:31:47;17.07;;;2.10;;
3274;SDS011;1649;53.672;10.064;2023-02-01T15:34:16;7.03;;;2.30;;
3274;SDS011;1649;53.672;10.064;2023-02-01T15:36:43;14.37;;;2.37;;
3274;SDS011;1649;53.672;10.064;2023-02-01T15:39:17;19.77;;;3.20;;
3274;SDS011;1649;53.672;10.064;2023-02-01T15:41:54;10.60;;;2.50;;
3274;SDS011;1649;53.672;10.064;2023-02-01T15:44:34;17.80;;;3.13;;
3274;SDS011;1649;53.672;10.064;2023-02-01T15:47:12;15.13;;;2.70;;
3274;SDS011;1649;53.672;10.064;2023-02-01T15:49:42;16.03;;;2.87;;
3274;SDS011;1649;53.672;10.064;2023-02-01T15:52:17;11.23;;;3.10;;
3274;SDS011;1649;53.672;10.064;2023-02-01T15:54:51;18.97;;;3.97;;
3274;SDS011;1649;53.672;10.064;2023-02-01T15:57:20;13.50;;;3.10;;
3274;SDS011;1649;53.672;10.064;2023-02-01T15:59:55;24.73;;;3.80;;
3274;SDS011;1649;53.672;10.064;2023-02-01T16:02:36;20.40;;;2.70;;
3274;SDS011;1649;53.672;10.064;2023-02-01T16:05:21;14.63;;;2.80;;
3274;SDS011;1649;53.672;10.064;2023-02-01T16:08:04;20.23;;;4.03;;
3274;SDS011;1649;53.672;10.064;2023-02-01T16:10:42;19.60;;;3.50;;
3274;SDS011;1649;53.672;10.064;2023-02-01T16:13:09;20.57;;;3.80;;
3274;SDS011;1649;53.672;10.064;2023-02-01T16:15:35;20.63;;;3.47;;
3274;SDS011;1649;53.672;10.064;2023-02-01T16:18:01;25.63;;;3.53;;
3274;SDS011;1649;53.672;10.064;2023-02-01T16:20:27;23.30;;;3.70;;
3274;SDS011;1649;53.672;10.064;2023-02-01T16:22:52;23.70;;;4.97;;
3274;SDS011;1649;53.672;10.064;2023-02-01T16:25:18;23.30;;;4.13;;
3274;SDS011;1649;53.672;10.064;2023-02-01T16:27:43;17.70;;;3.67;;
3274;SDS011;1649;53.672;10.064;2023-02-01T16:30:09;21.43;;;4.33;;
3274;SDS011;1649;53.672;10.064;2023-02-01T16:32:36;19.53;;;4.33;;
3274;SDS011;1649;53.672;10.064;2023-02-01T16:35:12;20.73;;;4.43;;
3274;SDS011;1649;53.672;10.064;2023-02-01T16:37:47;20.93;;;4.97;;
3274;SDS011;1649;53.672;10.064;2023-02-01T16:40:17;22.80;;;4.40;;
3274;SDS011;1649;53.672;10.064;2023-02-01T16:42:43;19.33;;;4.30;;
3274;SDS011;1649;53.672;10.064;2023-02-01T16:45:12;23.87;;;4.57;;
3274;SDS011;1649;53.672;10.064;2023-02-01T16:47:38;26.77;;;4.90;;
3274;SDS011;1649;53.672;10.064;2023-02-01T16:50:14;23.90;;;5.03;;
3274;SDS011;1649;53.672;10.064;2023-02-01T16:52:41;31.50;;;5.33;;
3274;SDS011;1649;53.672;10.064;2023-02-01T16:55:17;23.77;;;4.57;;
3274;SDS011;1649;53.672;10.064;2023-02-01T16:57:44;22.20;;;5.00;;
3274;SDS011;1649;53.672;10.064;2023-02-01T17:00:10;31.50;;;4.80;;
3274;SDS011;1649;53.672;10.064;2023-02-01T17:02:37;29.70;;;5.13;;
3274;SDS011;1649;53.672;10.064;2023-02-01T17:05:03;19.03;;;4.20;;
3274;SDS011;1649;53.672;10.064;2023-02-01T17:07:29;30.33;;;4.97;;
3274;SDS011;1649;53.672;10.064;2023-02-01T17:09:55;14.93;;;3.80;;
3274;SDS011;1649;53.672;10.064;2023-02-01T17:12:22;25.90;;;5.97;;
3274;SDS011;1649;53.672;10.064;2023-02-01T17:14:51;16.43;;;4.00;;
3274;SDS011;1649;53.672;10.064;2023-02-01T17:17:17;27.97;;;4.77;;
3274;SDS011;1649;53.672;10.064;2023-02-01T17:19:45;26.97;;;4.67;;
3274;SDS011;1649;53.672;10.064;2023-02-01T17:22:15;23.37;;;4.97;;
3274;SDS011;1649;53.672;10.064;2023-02-01T17:24:40;28.80;;;4.00;;
3274;SDS011;1649;53.672;10.064;2023-02-01T17:27:06;21.17;;;4.43;;
3274;SDS011;1649;53.672;10.064;2023-02-01T17:29:32;17.60;;;4.27;;
3274;SDS011;1649;53.672;10.064;2023-02-01T17:31:57;27.37;;;4.83;;
3274;SDS011;1649;53.672;10.064;2023-02-01T17:34:24;25.40;;;4.43;;
3274;SDS011;1649;53.672;10.064;2023-02-01T17:36:50;28.60;;;4.77;;
3274;SDS011;1649;53.672;10.064;2023-02-01T17:39:16;17.87;;;3.97;;
3274;SDS011;1649;53.672;10.064;2023-02-01T17:42:00;21.67;;;3.93;;
3274;SDS011;1649;53.672;10.064;2023-02-01T17:44:27;23.53;;;3.80;;
3274;SDS011;1649;53.672;10.064;2023-02-01T17:46:52;23.50;;;3.63;;